sensor_id;sensor_type;location;lat;lon;timestamp;P1;durP1;ratioP1;P2;durP2;ratioP2
9759;SDS011;4919;48.792;9.202;2022-12-18T00:01:20;35.33;;;14.60;;
9759;SDS011;4919;48.792;9.202;2022-12-18T00:03:51;38.13;;;14.10;;
9759;SDS011;4919;48.792;9.202;2022-12-18T00:06:19;37.57;;;14.73;;
9759;SDS011;4919;48.792;9.202;2022-12-18T00:08:47;35.83;;;14.50;;
9759;SDS011;4919;48.792;9.202;2022-12-18T00:11:15;38.60;;;14.73;;
9759;SDS011;4919;48.792;9.202;2022-12-18T00:13:46;40.00;;;14.37;;
9759;SDS011;4919;48.792;9.202;2022-12-18T00:16:15;41.53;;;15.70;;
9759;SDS011;4919;48.792;9.202;2022-12-18T00:18:44;38.60;;;14.37;;
9759;SDS011;4919;48.792;9.202;2022-12-18T00:21:11;34.93;;;14.53;;
9759;SDS011;4919;48.792;9.202;2022-12-18T00:23:40;38.93;;;16.03;;
9759;SDS011;4919;48.792;9.202;2022-12-18T00:26:12;40.37;;;14.97;;
9759;SDS011;4919;48.792;9.202;2022-12-18T00:28:42;42.47;;;16.07;;
9759;SDS011;4919;48.792;9.202;2022-12-18T00:31:11;45.90;;;16.50;;
9759;SDS011;4919;48.792;9.202;2022-12-18T00:33:40;45.00;;;17.17;;
9759;SDS011;4919;48.792;9.202;2022-12-18T00:36:09;44.43;;;16.53;;
9759;SDS011;4919;48.792;9.202;2022-12-18T00:38:38;42.60;;;17.07;;
9759;SDS011;4919;48.792;9.202;2022-12-18T00:41:06;43.47;;;16.27;;
9759;SDS011;4919;48.792;9.202;2022-12-18T00:43:35;38.63;;;15.47;;
9759;SDS011;4919;48.792;9.202;2022-12-18T00:46:03;40.20;;;15.97;;
9759;SDS011;4919;48.792;9.202;2022-12-18T00:48:30;33.10;;;14.00;;
9759;SDS011;4919;48.792;9.202;2022-12-18T00:50:58;40.10;;;14.83;;
9759;SDS011;4919;48.792;9.202;2022-12-18T00:53:25;36.70;;;15.10;;
9759;SDS011;4919;48.792;9.202;2022-12-18T00:55:51;37.63;;;15.50;;
9759;SDS011;4919;48.792;9.202;2022-12-18T00:58:18;40.87;;;16.50;;
9759;SDS011;4919;48.792;9.202;2022-12-18T01:00:45;41.93;;;15.67;;
9759;SDS011;4919;48.792;9.202;2022-12-18T01:03:12;41.77;;;16.63;;
9759;SDS011;4919;48.792;9.202;2022-12-18T01:05:42;38.40;;;16.30;;
9759;SDS011;4919;48.792;9.202;2022-12-18T01:08:10;40.23;;;16.67;;
9759;SDS011;4919;48.792;9.202;2022-12-18T01:10:39;48.13;;;17.47;;
9759;SDS011;4919;48.792;9.202;2022-12-18T01:13:07;47.07;;;17.67;;
9759;SDS011;4919;48.792;9.202;2022-12-18T01:15:35;54.03;;;18.13;;
9759;SDS011;4919;48.792;9.202;2022-12-18T01:18:02;54.37;;;19.40;;
9759;SDS011;4919;48.792;9.202;2022-12-18T01:20:32;52.37;;;19.77;;
9759;SDS011;4919;48.792;9.202;2022-12-18T01:22:59;54.87;;;19.83;;
9759;SDS011;4919;48.792;9.202;2022-12-18T01:25:25;54.60;;;19.60;;
9759;SDS011;4919;48.792;9.202;2022-12-18T01:27:52;57.90;;;19.50;;
9759;SDS011;4919;48.792;9.202;2022-12-18T01:30:19;66.97;;;19.87;;
9759;SDS011;4919;48.792;9.202;2022-12-18T01:32:46;55.30;;;20.07;;
9759;SDS011;4919;48.792;9.202;2022-12-18T01:35:13;58.67;;;20.87;;
9759;SDS011;4919;48.792;9.202;2022-12-18T01:37:39;55.27;;;21.60;;
9759;SDS011;4919;48.792;9.202;2022-12-18T01:40:06;63.33;;;22.27;;
9759;SDS011;4919;48.792;9.202;2022-12-18T01:42:34;65.07;;;21.70;;
9759;SDS011;4919;48.792;9.202;2022-12-18T01:45:04;64.53;;;22.80;;
9759;SDS011;4919;48.792;9.202;2022-12-18T01:47:39;61.97;;;22.70;;
9759;SDS011;4919;48.792;9.202;2022-12-18T01:50:10;61.70;;;22.57;;
9759;SDS011;4919;48.792;9.202;2022-12-18T01:52:37;60.93;;;20.83;;
9759;SDS011;4919;48.792;9.202;2022-12-18T01:55:07;61.20;;;22.07;;
9759;SDS011;4919;48.792;9.202;2022-12-18T01:57:34;66.23;;;23.50;;
9759;SDS011;4919;48.792;9.202;2022-12-18T02:00:05;58.17;;;20.93;;
9759;SDS011;4919;48.792;9.202;2022-12-18T02:02:43;58.13;;;21.90;;
9759;SDS011;4919;48.792;9.202;2022-12-18T02:12:52;64.50;;;22.03;;
9759;SDS011;4919;48.792;9.202;2022-12-18T02:15:43;68.93;;;21.63;;
9759;SDS011;4919;48.792;9.202;2022-12-18T02:18:36;68.30;;;23.50;;
9759;SDS011;4919;48.792;9.202;2022-12-18T02:21:18;61.30;;;21.47;;
9759;SDS011;4919;48.792;9.202;2022-12-18T02:26:31;65.70;;;22.70;;
9759;SDS011;4919;48.792;9.202;2022-12-18T02:29:08;74.63;;;24.17;;
9759;SDS011;4919;48.792;9.202;2022-12-18T02:32:24;68.30;;;23.80;;
9759;SDS011;4919;48.792;9.202;2022-12-18T02:34:38;59.97;;;22.97;;
9759;SDS011;4919;48.792;9.202;2022-12-18T02:37:12;66.63;;;22.17;;
9759;SDS011;4919;48.792;9.202;2022-12-18T02:39:42;58.23;;;21.60;;
9759;SDS011;4919;48.792;9.202;2022-12-18T02:42:12;60.43;;;20.43;;
9759;SDS011;4919;48.792;9.202;2022-12-18T02:44:49;57.77;;;20.07;;
9759;SDS011;4919;48.792;9.202;2022-12-18T02:47:23;59.03;;;22.07;;
9759;SDS011;4919;48.792;9.202;2022-12-18T02:49:57;61.00;;;21.83;;
9759;SDS011;4919;48.792;9.202;2022-12-18T02:56:00;64.13;;;22.67;;
9759;SDS011;4919;48.792;9.202;2022-12-18T02:58:43;56.60;;;20.97;;
9759;SDS011;4919;48.792;9.202;2022-12-18T03:01:43;70.53;;;22.37;;
9759;SDS011;4919;48.792;9.202;2022-12-18T03:04:41;60.67;;;20.97;;
9759;SDS011;4919;48.792;9.202;2022-12-18T03:07:16;63.50;;;22.43;;
9759;SDS011;4919;48.792;9.202;2022-12-18T03:09:48;67.00;;;22.33;;
9759;SDS011;4919;48.792;9.202;2022-12-18T03:12:18;64.37;;;22.90;;
9759;SDS011;4919;48.792;9.202;2022-12-18T03:15:01;62.17;;;22.03;;
9759;SDS011;4919;48.792;9.202;2022-12-18T03:17:30;64.40;;;22.97;;
9759;SDS011;4919;48.792;9.202;2022-12-18T03:20:01;68.20;;;22.43;;
9759;SDS011;4919;48.792;9.202;2022-12-18T03:22:34;67.30;;;21.17;;
9759;SDS011;4919;48.792;9.202;2022-12-18T03:25:04;65.17;;;22.77;;
9759;SDS011;4919;48.792;9.202;2022-12-18T03:27:35;67.40;;;22.00;;
9759;SDS011;4919;48.792;9.202;2022-12-18T03:30:09;69.43;;;21.83;;
9759;SDS011;4919;48.792;9.202;2022-12-18T03:35:13;67.67;;;22.53;;
9759;SDS011;4919;48.792;9.202;2022-12-18T03:37:48;63.83;;;21.97;;
9759;SDS011;4919;48.792;9.202;2022-12-18T03:40:16;69.83;;;22.50;;
9759;SDS011;4919;48.792;9.202;2022-12-18T03:42:48;67.83;;;23.03;;
9759;SDS011;4919;48.792;9.202;2022-12-18T03:45:23;65.73;;;21.93;;
9759;SDS011;4919;48.792;9.202;2022-12-18T03:48:00;57.20;;;21.20;;
9759;SDS011;4919;48.792;9.202;2022-12-18T03:50:36;68.43;;;22.60;;
9759;SDS011;4919;48.792;9.202;2022-12-18T03:53:28;56.83;;;19.30;;
9759;SDS011;4919;48.792;9.202;2022-12-18T03:56:02;65.73;;;21.97;;
9759;SDS011;4919;48.792;9.202;2022-12-18T03:58:35;64.23;;;19.87;;
9759;SDS011;4919;48.792;9.202;2022-12-18T04:01:15;56.53;;;19.00;;
9759;SDS011;4919;48.792;9.202;2022-12-18T04:03:44;46.47;;;17.50;;
9759;SDS011;4919;48.792;9.202;2022-12-18T04:06:17;48.23;;;17.10;;
9759;SDS011;4919;48.792;9.202;2022-12-18T04:08:45;55.03;;;18.43;;
9759;SDS011;4919;48.792;9.202;2022-12-18T04:11:16;43.37;;;16.20;;
9759;SDS011;4919;48.792;9.202;2022-12-18T04:13:44;47.80;;;16.60;;
9759;SDS011;4919;48.792;9.202;2022-12-18T04:16:19;46.27;;;16.73;;
9759;SDS011;4919;48.792;9.202;2022-12-18T04:18:50;47.90;;;17.20;;
9759;SDS011;4919;48.792;9.202;2022-12-18T04:21:18;46.17;;;16.77;;
9759;SDS011;4919;48.792;9.202;2022-12-18T04:23:47;43.23;;;15.50;;
9759;SDS011;4919;48.792;9.202;2022-12-18T04:26:16;43.40;;;16.30;;
9759;SDS011;4919;48.792;9.202;2022-12-18T04:29:03;42.00;;;16.10;;
9759;SDS011;4919;48.792;9.202;2022-12-18T04:31:30;47.77;;;17.43;;
9759;SDS011;4919;48.792;9.202;2022-12-18T04:33:57;45.90;;;17.03;;
9759;SDS011;4919;48.792;9.202;2022-12-18T04:36:27;43.67;;;16.50;;
9759;SDS011;4919;48.792;9.202;2022-12-18T04:38:54;48.73;;;16.87;;
9759;SDS011;4919;48.792;9.202;2022-12-18T04:41:22;44.90;;;16.60;;
9759;SDS011;4919;48.792;9.202;2022-12-18T04:43:51;44.23;;;16.70;;
9759;SDS011;4919;48.792;9.202;2022-12-18T04:46:17;42.17;;;16.13;;
9759;SDS011;4919;48.792;9.202;2022-12-18T04:48:45;53.20;;;17.77;;
9759;SDS011;4919;48.792;9.202;2022-12-18T04:51:13;56.30;;;18.73;;
9759;SDS011;4919;48.792;9.202;2022-12-18T04:53:40;51.60;;;17.47;;
9759;SDS011;4919;48.792;9.202;2022-12-18T04:56:11;57.87;;;19.23;;
9759;SDS011;4919;48.792;9.202;2022-12-18T04:58:39;52.83;;;19.17;;
9759;SDS011;4919;48.792;9.202;2022-12-18T05:01:07;58.57;;;18.70;;
9759;SDS011;4919;48.792;9.202;2022-12-18T05:03:36;52.87;;;19.00;;
9759;SDS011;4919;48.792;9.202;2022-12-18T05:06:04;51.20;;;18.87;;
9759;SDS011;4919;48.792;9.202;2022-12-18T05:08:31;60.10;;;20.07;;
9759;SDS011;4919;48.792;9.202;2022-12-18T05:10:59;52.53;;;19.80;;
9759;SDS011;4919;48.792;9.202;2022-12-18T05:13:31;62.03;;;21.17;;
9759;SDS011;4919;48.792;9.202;2022-12-18T05:15:58;61.07;;;19.97;;
9759;SDS011;4919;48.792;9.202;2022-12-18T05:18:25;52.87;;;19.83;;
9759;SDS011;4919;48.792;9.202;2022-12-18T05:20:53;60.57;;;21.00;;
9759;SDS011;4919;48.792;9.202;2022-12-18T05:23:20;56.30;;;19.77;;
9759;SDS011;4919;48.792;9.202;2022-12-18T05:25:56;59.27;;;21.17;;
9759;SDS011;4919;48.792;9.202;2022-12-18T05:28:25;58.10;;;21.17;;
9759;SDS011;4919;48.792;9.202;2022-12-18T05:30:54;59.07;;;20.07;;
9759;SDS011;4919;48.792;9.202;2022-12-18T05:33:24;48.47;;;19.20;;
9759;SDS011;4919;48.792;9.202;2022-12-18T05:35:53;54.40;;;20.13;;
9759;SDS011;4919;48.792;9.202;2022-12-18T05:38:22;49.97;;;19.00;;
9759;SDS011;4919;48.792;9.202;2022-12-18T05:40:50;57.57;;;21.07;;
9759;SDS011;4919;48.792;9.202;2022-12-18T05:43:18;47.00;;;17.33;;
9759;SDS011;4919;48.792;9.202;2022-12-18T05:45:47;56.53;;;19.83;;
9759;SDS011;4919;48.792;9.202;2022-12-18T05:48:15;49.77;;;19.43;;
9759;SDS011;4919;48.792;9.202;2022-12-18T05:50:42;56.97;;;19.97;;
9759;SDS011;4919;48.792;9.202;2022-12-18T05:53:14;59.73;;;21.60;;
9759;SDS011;4919;48.792;9.202;2022-12-18T05:55:43;55.00;;;18.53;;
9759;SDS011;4919;48.792;9.202;2022-12-18T05:58:10;52.27;;;19.17;;
9759;SDS011;4919;48.792;9.202;2022-12-18T06:00:39;57.97;;;19.70;;
9759;SDS011;4919;48.792;9.202;2022-12-18T06:03:12;49.27;;;18.67;;
9759;SDS011;4919;48.792;9.202;2022-12-18T06:05:40;54.10;;;18.37;;
9759;SDS011;4919;48.792;9.202;2022-12-18T06:08:08;57.27;;;20.80;;
9759;SDS011;4919;48.792;9.202;2022-12-18T06:10:36;57.90;;;18.77;;
9759;SDS011;4919;48.792;9.202;2022-12-18T06:13:05;48.70;;;17.50;;
9759;SDS011;4919;48.792;9.202;2022-12-18T06:15:32;50.20;;;18.50;;
9759;SDS011;4919;48.792;9.202;2022-12-18T06:18:02;48.77;;;17.13;;
9759;SDS011;4919;48.792;9.202;2022-12-18T06:20:31;50.17;;;17.30;;
9759;SDS011;4919;48.792;9.202;2022-12-18T06:22:59;57.93;;;19.13;;
9759;SDS011;4919;48.792;9.202;2022-12-18T06:25:26;47.17;;;17.27;;
9759;SDS011;4919;48.792;9.202;2022-12-18T06:27:53;45.73;;;17.33;;
9759;SDS011;4919;48.792;9.202;2022-12-18T06:30:20;49.37;;;17.50;;
9759;SDS011;4919;48.792;9.202;2022-12-18T06:32:49;46.93;;;17.10;;
9759;SDS011;4919;48.792;9.202;2022-12-18T06:35:22;45.40;;;16.87;;
9759;SDS011;4919;48.792;9.202;2022-12-18T06:37:49;49.70;;;17.10;;
9759;SDS011;4919;48.792;9.202;2022-12-18T06:40:17;48.50;;;15.50;;
9759;SDS011;4919;48.792;9.202;2022-12-18T06:42:44;46.20;;;16.03;;
9759;SDS011;4919;48.792;9.202;2022-12-18T06:45:11;49.30;;;17.57;;
9759;SDS011;4919;48.792;9.202;2022-12-18T06:47:40;50.33;;;18.50;;
9759;SDS011;4919;48.792;9.202;2022-12-18T06:50:07;46.27;;;17.47;;
9759;SDS011;4919;48.792;9.202;2022-12-18T06:52:34;40.20;;;15.80;;
9759;SDS011;4919;48.792;9.202;2022-12-18T06:55:01;44.27;;;16.07;;
9759;SDS011;4919;48.792;9.202;2022-12-18T06:57:28;38.70;;;14.50;;
9759;SDS011;4919;48.792;9.202;2022-12-18T06:59:54;44.43;;;15.67;;
9759;SDS011;4919;48.792;9.202;2022-12-18T07:02:21;36.73;;;14.20;;
9759;SDS011;4919;48.792;9.202;2022-12-18T07:04:51;35.67;;;13.60;;
9759;SDS011;4919;48.792;9.202;2022-12-18T07:07:18;38.00;;;13.30;;
9759;SDS011;4919;48.792;9.202;2022-12-18T07:09:45;31.73;;;13.07;;
9759;SDS011;4919;48.792;9.202;2022-12-18T07:12:12;38.27;;;14.57;;
9759;SDS011;4919;48.792;9.202;2022-12-18T07:14:38;48.47;;;16.13;;
9759;SDS011;4919;48.792;9.202;2022-12-18T07:17:05;37.53;;;13.87;;
9759;SDS011;4919;48.792;9.202;2022-12-18T07:19:32;40.63;;;15.17;;
9759;SDS011;4919;48.792;9.202;2022-12-18T07:22:00;46.57;;;17.10;;
9759;SDS011;4919;48.792;9.202;2022-12-18T07:24:28;49.53;;;16.40;;
9759;SDS011;4919;48.792;9.202;2022-12-18T07:26:54;43.27;;;15.73;;
9759;SDS011;4919;48.792;9.202;2022-12-18T07:29:21;43.87;;;16.70;;
9759;SDS011;4919;48.792;9.202;2022-12-18T07:31:48;44.73;;;16.93;;
9759;SDS011;4919;48.792;9.202;2022-12-18T07:34:15;49.77;;;18.87;;
9759;SDS011;4919;48.792;9.202;2022-12-18T07:36:42;49.63;;;17.33;;
9759;SDS011;4919;48.792;9.202;2022-12-18T07:39:10;45.17;;;17.10;;
9759;SDS011;4919;48.792;9.202;2022-12-18T07:41:37;46.87;;;15.40;;
9759;SDS011;4919;48.792;9.202;2022-12-18T07:44:12;43.37;;;15.17;;
9759;SDS011;4919;48.792;9.202;2022-12-18T07:46:39;45.27;;;15.73;;
9759;SDS011;4919;48.792;9.202;2022-12-18T07:49:06;45.37;;;16.97;;
9759;SDS011;4919;48.792;9.202;2022-12-18T07:51:32;47.60;;;16.33;;
9759;SDS011;4919;48.792;9.202;2022-12-18T07:53:59;42.70;;;14.93;;
9759;SDS011;4919;48.792;9.202;2022-12-18T07:56:26;47.37;;;18.10;;
9759;SDS011;4919;48.792;9.202;2022-12-18T07:58:56;46.17;;;17.47;;
9759;SDS011;4919;48.792;9.202;2022-12-18T08:01:23;46.13;;;17.50;;
9759;SDS011;4919;48.792;9.202;2022-12-18T08:03:50;45.37;;;16.90;;
9759;SDS011;4919;48.792;9.202;2022-12-18T08:06:18;57.60;;;19.20;;
9759;SDS011;4919;48.792;9.202;2022-12-18T08:08:52;50.00;;;17.77;;
9759;SDS011;4919;48.792;9.202;2022-12-18T08:11:21;53.13;;;17.80;;
9759;SDS011;4919;48.792;9.202;2022-12-18T08:13:48;48.53;;;18.67;;
9759;SDS011;4919;48.792;9.202;2022-12-18T08:16:16;43.33;;;15.93;;
9759;SDS011;4919;48.792;9.202;2022-12-18T08:18:44;58.40;;;18.83;;
9759;SDS011;4919;48.792;9.202;2022-12-18T08:21:15;44.97;;;16.03;;
9759;SDS011;4919;48.792;9.202;2022-12-18T08:23:49;46.73;;;16.53;;
9759;SDS011;4919;48.792;9.202;2022-12-18T08:26:18;50.47;;;17.80;;
9759;SDS011;4919;48.792;9.202;2022-12-18T08:28:46;45.13;;;16.00;;
9759;SDS011;4919;48.792;9.202;2022-12-18T08:31:13;45.20;;;17.07;;
9759;SDS011;4919;48.792;9.202;2022-12-18T08:33:40;33.63;;;12.87;;
9759;SDS011;4919;48.792;9.202;2022-12-18T08:36:08;42.50;;;15.77;;
9759;SDS011;4919;48.792;9.202;2022-12-18T08:38:36;40.60;;;14.23;;
9759;SDS011;4919;48.792;9.202;2022-12-18T08:41:03;40.33;;;14.23;;
9759;SDS011;4919;48.792;9.202;2022-12-18T08:43:32;40.83;;;16.37;;
9759;SDS011;4919;48.792;9.202;2022-12-18T08:46:18;39.30;;;15.70;;
9759;SDS011;4919;48.792;9.202;2022-12-18T08:48:46;46.57;;;16.47;;
9759;SDS011;4919;48.792;9.202;2022-12-18T08:51:15;38.63;;;15.70;;
9759;SDS011;4919;48.792;9.202;2022-12-18T08:53:43;47.70;;;16.63;;
9759;SDS011;4919;48.792;9.202;2022-12-18T08:56:10;43.40;;;15.97;;
9759;SDS011;4919;48.792;9.202;2022-12-18T08:58:38;47.77;;;16.90;;
9759;SDS011;4919;48.792;9.202;2022-12-18T09:01:07;43.30;;;16.33;;
9759;SDS011;4919;48.792;9.202;2022-12-18T09:03:36;52.73;;;17.37;;
9759;SDS011;4919;48.792;9.202;2022-12-18T09:06:05;41.97;;;15.67;;
9759;SDS011;4919;48.792;9.202;2022-12-18T09:08:35;41.13;;;15.57;;
9759;SDS011;4919;48.792;9.202;2022-12-18T09:11:09;39.93;;;15.53;;
9759;SDS011;4919;48.792;9.202;2022-12-18T09:13:50;34.43;;;14.23;;
9759;SDS011;4919;48.792;9.202;2022-12-18T09:16:17;38.40;;;14.13;;
9759;SDS011;4919;48.792;9.202;2022-12-18T09:18:46;41.43;;;15.70;;
9759;SDS011;4919;48.792;9.202;2022-12-18T09:21:14;40.73;;;13.97;;
9759;SDS011;4919;48.792;9.202;2022-12-18T09:23:43;40.10;;;15.13;;
9759;SDS011;4919;48.792;9.202;2022-12-18T09:26:14;35.77;;;14.10;;
9759;SDS011;4919;48.792;9.202;2022-12-18T09:28:41;34.77;;;13.67;;
9759;SDS011;4919;48.792;9.202;2022-12-18T09:31:10;46.87;;;19.43;;
9759;SDS011;4919;48.792;9.202;2022-12-18T09:33:41;34.30;;;13.67;;
9759;SDS011;4919;48.792;9.202;2022-12-18T09:36:14;37.30;;;15.30;;
9759;SDS011;4919;48.792;9.202;2022-12-18T09:38:43;34.13;;;14.07;;
9759;SDS011;4919;48.792;9.202;2022-12-18T09:41:17;37.40;;;15.03;;
9759;SDS011;4919;48.792;9.202;2022-12-18T09:44:03;35.37;;;13.63;;
9759;SDS011;4919;48.792;9.202;2022-12-18T09:46:54;43.03;;;16.13;;
9759;SDS011;4919;48.792;9.202;2022-12-18T09:49:47;40.90;;;14.97;;
9759;SDS011;4919;48.792;9.202;2022-12-18T09:52:22;42.67;;;15.83;;
9759;SDS011;4919;48.792;9.202;2022-12-18T09:55:03;40.20;;;15.93;;
9759;SDS011;4919;48.792;9.202;2022-12-18T09:57:38;38.43;;;13.50;;
9759;SDS011;4919;48.792;9.202;2022-12-18T10:00:21;31.27;;;12.40;;
9759;SDS011;4919;48.792;9.202;2022-12-18T10:02:53;35.37;;;13.63;;
9759;SDS011;4919;48.792;9.202;2022-12-18T10:05:37;39.20;;;13.67;;
9759;SDS011;4919;48.792;9.202;2022-12-18T10:14:09;40.13;;;14.17;;
9759;SDS011;4919;48.792;9.202;2022-12-18T10:27:41;39.80;;;16.20;;
9759;SDS011;4919;48.792;9.202;2022-12-18T10:30:15;51.57;;;18.53;;
9759;SDS011;4919;48.792;9.202;2022-12-18T10:32:43;37.10;;;14.70;;
9759;SDS011;4919;48.792;9.202;2022-12-18T10:35:18;41.03;;;16.97;;
9759;SDS011;4919;48.792;9.202;2022-12-18T10:41:00;47.73;;;17.37;;
9759;SDS011;4919;48.792;9.202;2022-12-18T10:43:32;42.07;;;16.33;;
9759;SDS011;4919;48.792;9.202;2022-12-18T10:48:39;33.87;;;13.37;;
9759;SDS011;4919;48.792;9.202;2022-12-18T10:53:59;37.97;;;16.53;;
9759;SDS011;4919;48.792;9.202;2022-12-18T10:56:33;40.60;;;13.93;;
9759;SDS011;4919;48.792;9.202;2022-12-18T10:59:03;44.73;;;17.23;;
9759;SDS011;4919;48.792;9.202;2022-12-18T11:01:53;42.93;;;15.30;;
9759;SDS011;4919;48.792;9.202;2022-12-18T11:04:26;40.77;;;14.27;;
9759;SDS011;4919;48.792;9.202;2022-12-18T11:07:07;39.27;;;14.83;;
9759;SDS011;4919;48.792;9.202;2022-12-18T11:09:37;37.67;;;14.03;;
9759;SDS011;4919;48.792;9.202;2022-12-18T11:12:16;39.07;;;14.23;;
9759;SDS011;4919;48.792;9.202;2022-12-18T11:14:48;45.67;;;15.20;;
9759;SDS011;4919;48.792;9.202;2022-12-18T11:17:30;41.80;;;15.77;;
9759;SDS011;4919;48.792;9.202;2022-12-18T11:22:59;42.70;;;15.13;;
9759;SDS011;4919;48.792;9.202;2022-12-18T11:25:39;31.73;;;12.67;;
9759;SDS011;4919;48.792;9.202;2022-12-18T11:28:29;37.27;;;13.90;;
9759;SDS011;4919;48.792;9.202;2022-12-18T11:33:42;36.33;;;14.70;;
9759;SDS011;4919;48.792;9.202;2022-12-18T11:36:33;39.83;;;15.40;;
9759;SDS011;4919;48.792;9.202;2022-12-18T11:39:09;38.90;;;15.47;;
9759;SDS011;4919;48.792;9.202;2022-12-18T11:41:47;34.47;;;13.90;;
9759;SDS011;4919;48.792;9.202;2022-12-18T11:44:59;39.60;;;15.53;;
9759;SDS011;4919;48.792;9.202;2022-12-18T11:47:49;42.17;;;15.77;;
9759;SDS011;4919;48.792;9.202;2022-12-18T11:53:03;35.40;;;15.50;;
9759;SDS011;4919;48.792;9.202;2022-12-18T11:58:36;49.67;;;22.23;;
9759;SDS011;4919;48.792;9.202;2022-12-18T12:06:48;34.33;;;15.30;;
9759;SDS011;4919;48.792;9.202;2022-12-18T12:09:33;38.67;;;14.03;;
9759;SDS011;4919;48.792;9.202;2022-12-18T12:12:32;36.90;;;14.93;;
9759;SDS011;4919;48.792;9.202;2022-12-18T12:23:24;37.60;;;15.80;;
9759;SDS011;4919;48.792;9.202;2022-12-18T12:31:47;41.00;;;15.33;;
9759;SDS011;4919;48.792;9.202;2022-12-18T12:41:18;39.30;;;16.10;;
9759;SDS011;4919;48.792;9.202;2022-12-18T12:44:17;33.40;;;14.17;;
9759;SDS011;4919;48.792;9.202;2022-12-18T12:46:49;34.57;;;13.67;;
9759;SDS011;4919;48.792;9.202;2022-12-18T12:49:22;33.50;;;14.53;;
9759;SDS011;4919;48.792;9.202;2022-12-18T12:52:12;25.57;;;12.93;;
9759;SDS011;4919;48.792;9.202;2022-12-18T12:54:43;29.83;;;12.60;;
9759;SDS011;4919;48.792;9.202;2022-12-18T12:57:26;28.53;;;12.97;;
9759;SDS011;4919;48.792;9.202;2022-12-18T13:05:24;30.97;;;14.20;;
9759;SDS011;4919;48.792;9.202;2022-12-18T13:08:02;25.77;;;12.53;;
9759;SDS011;4919;48.792;9.202;2022-12-18T13:10:37;28.50;;;13.77;;
9759;SDS011;4919;48.792;9.202;2022-12-18T13:13:08;31.13;;;13.67;;
9759;SDS011;4919;48.792;9.202;2022-12-18T13:15:40;30.63;;;13.70;;
9759;SDS011;4919;48.792;9.202;2022-12-18T13:18:19;34.77;;;14.47;;
9759;SDS011;4919;48.792;9.202;2022-12-18T13:23:27;33.90;;;15.73;;
9759;SDS011;4919;48.792;9.202;2022-12-18T13:36:29;31.77;;;15.60;;
9759;SDS011;4919;48.792;9.202;2022-12-18T13:39:44;45.43;;;21.13;;
9759;SDS011;4919;48.792;9.202;2022-12-18T13:44:35;42.80;;;18.57;;
9759;SDS011;4919;48.792;9.202;2022-12-18T13:49:52;48.13;;;19.20;;
9759;SDS011;4919;48.792;9.202;2022-12-18T13:52:26;52.67;;;20.83;;
9759;SDS011;4919;48.792;9.202;2022-12-18T13:55:00;54.37;;;21.43;;
9759;SDS011;4919;48.792;9.202;2022-12-18T13:57:30;50.63;;;21.40;;
9759;SDS011;4919;48.792;9.202;2022-12-18T14:02:48;59.83;;;23.77;;
9759;SDS011;4919;48.792;9.202;2022-12-18T14:05:22;58.90;;;23.20;;
9759;SDS011;4919;48.792;9.202;2022-12-18T14:08:05;62.13;;;24.17;;
9759;SDS011;4919;48.792;9.202;2022-12-18T14:10:39;50.37;;;18.80;;
9759;SDS011;4919;48.792;9.202;2022-12-18T14:13:15;60.07;;;22.73;;
9759;SDS011;4919;48.792;9.202;2022-12-18T14:15:48;59.03;;;23.23;;
9759;SDS011;4919;48.792;9.202;2022-12-18T14:18:20;72.80;;;28.57;;
9759;SDS011;4919;48.792;9.202;2022-12-18T14:20:57;64.00;;;23.30;;
9759;SDS011;4919;48.792;9.202;2022-12-18T14:23:29;60.40;;;22.03;;
9759;SDS011;4919;48.792;9.202;2022-12-18T14:25:59;60.37;;;23.23;;
9759;SDS011;4919;48.792;9.202;2022-12-18T14:28:31;55.17;;;22.77;;
9759;SDS011;4919;48.792;9.202;2022-12-18T14:30:58;55.97;;;21.80;;
9759;SDS011;4919;48.792;9.202;2022-12-18T14:33:27;51.67;;;19.67;;
9759;SDS011;4919;48.792;9.202;2022-12-18T14:36:01;81.93;;;35.10;;
9759;SDS011;4919;48.792;9.202;2022-12-18T14:38:34;41.83;;;17.90;;
9759;SDS011;4919;48.792;9.202;2022-12-18T14:43:37;36.53;;;16.20;;
9759;SDS011;4919;48.792;9.202;2022-12-18T14:46:24;34.77;;;15.23;;
9759;SDS011;4919;48.792;9.202;2022-12-18T14:49:03;41.73;;;17.80;;
9759;SDS011;4919;48.792;9.202;2022-12-18T14:51:51;32.17;;;15.37;;
9759;SDS011;4919;48.792;9.202;2022-12-18T14:54:20;32.40;;;14.47;;
9759;SDS011;4919;48.792;9.202;2022-12-18T14:56:51;33.03;;;14.67;;
9759;SDS011;4919;48.792;9.202;2022-12-18T14:59:24;36.23;;;16.37;;
9759;SDS011;4919;48.792;9.202;2022-12-18T15:04:37;29.93;;;15.50;;
9759;SDS011;4919;48.792;9.202;2022-12-18T15:07:13;30.77;;;16.30;;
9759;SDS011;4919;48.792;9.202;2022-12-18T15:09:44;36.43;;;20.03;;
9759;SDS011;4919;48.792;9.202;2022-12-18T15:15:01;26.97;;;14.20;;
9759;SDS011;4919;48.792;9.202;2022-12-18T15:17:29;36.60;;;16.87;;
9759;SDS011;4919;48.792;9.202;2022-12-18T15:20:03;30.40;;;14.83;;
9759;SDS011;4919;48.792;9.202;2022-12-18T15:22:36;33.20;;;15.20;;
9759;SDS011;4919;48.792;9.202;2022-12-18T15:25:19;36.17;;;15.30;;
9759;SDS011;4919;48.792;9.202;2022-12-18T15:28:00;26.03;;;14.03;;
9759;SDS011;4919;48.792;9.202;2022-12-18T15:30:27;26.53;;;13.33;;
9759;SDS011;4919;48.792;9.202;2022-12-18T15:35:57;26.70;;;13.83;;
9759;SDS011;4919;48.792;9.202;2022-12-18T15:38:26;26.93;;;13.37;;
9759;SDS011;4919;48.792;9.202;2022-12-18T15:40:53;28.80;;;12.73;;
9759;SDS011;4919;48.792;9.202;2022-12-18T15:43:23;28.03;;;12.97;;
9759;SDS011;4919;48.792;9.202;2022-12-18T15:46:04;31.60;;;13.60;;
9759;SDS011;4919;48.792;9.202;2022-12-18T15:48:34;26.10;;;12.73;;
9759;SDS011;4919;48.792;9.202;2022-12-18T15:51:07;25.63;;;12.13;;
9759;SDS011;4919;48.792;9.202;2022-12-18T15:53:39;25.93;;;14.30;;
9759;SDS011;4919;48.792;9.202;2022-12-18T15:56:11;28.73;;;13.60;;
9759;SDS011;4919;48.792;9.202;2022-12-18T15:58:57;29.30;;;13.70;;
9759;SDS011;4919;48.792;9.202;2022-12-18T16:01:25;25.40;;;13.03;;
9759;SDS011;4919;48.792;9.202;2022-12-18T16:03:54;28.83;;;14.23;;
9759;SDS011;4919;48.792;9.202;2022-12-18T16:06:21;26.10;;;12.97;;
9759;SDS011;4919;48.792;9.202;2022-12-18T16:08:49;26.27;;;13.30;;
9759;SDS011;4919;48.792;9.202;2022-12-18T16:11:26;26.00;;;12.93;;
9759;SDS011;4919;48.792;9.202;2022-12-18T16:14:09;23.73;;;12.30;;
9759;SDS011;4919;48.792;9.202;2022-12-18T16:16:51;26.90;;;13.57;;
9759;SDS011;4919;48.792;9.202;2022-12-18T16:19:20;28.40;;;13.83;;
9759;SDS011;4919;48.792;9.202;2022-12-18T16:21:51;25.77;;;13.03;;
9759;SDS011;4919;48.792;9.202;2022-12-18T16:24:20;28.37;;;13.63;;
9759;SDS011;4919;48.792;9.202;2022-12-18T16:26:49;32.03;;;14.40;;
9759;SDS011;4919;48.792;9.202;2022-12-18T16:29:19;33.70;;;14.83;;
9759;SDS011;4919;48.792;9.202;2022-12-18T16:31:51;36.67;;;15.47;;
9759;SDS011;4919;48.792;9.202;2022-12-18T16:34:25;29.20;;;13.83;;
9759;SDS011;4919;48.792;9.202;2022-12-18T16:36:59;27.87;;;13.20;;
9759;SDS011;4919;48.792;9.202;2022-12-18T16:39:31;29.70;;;14.00;;
9759;SDS011;4919;48.792;9.202;2022-12-18T16:42:09;26.10;;;14.03;;
9759;SDS011;4919;48.792;9.202;2022-12-18T16:44:39;31.03;;;14.17;;
9759;SDS011;4919;48.792;9.202;2022-12-18T16:47:06;26.80;;;13.67;;
9759;SDS011;4919;48.792;9.202;2022-12-18T16:49:35;32.63;;;14.83;;
9759;SDS011;4919;48.792;9.202;2022-12-18T16:52:03;30.67;;;14.20;;
9759;SDS011;4919;48.792;9.202;2022-12-18T16:54:31;29.33;;;13.87;;
9759;SDS011;4919;48.792;9.202;2022-12-18T16:56:59;28.10;;;13.77;;
9759;SDS011;4919;48.792;9.202;2022-12-18T16:59:26;28.90;;;14.60;;
9759;SDS011;4919;48.792;9.202;2022-12-18T17:01:55;26.60;;;12.73;;
9759;SDS011;4919;48.792;9.202;2022-12-18T17:04:22;26.73;;;13.33;;
9759;SDS011;4919;48.792;9.202;2022-12-18T17:06:49;28.23;;;13.20;;
9759;SDS011;4919;48.792;9.202;2022-12-18T17:09:20;29.37;;;13.57;;
9759;SDS011;4919;48.792;9.202;2022-12-18T17:11:56;24.87;;;11.83;;
9759;SDS011;4919;48.792;9.202;2022-12-18T17:14:23;29.47;;;13.27;;